createdAt,value
2018-05-10T00:00:44.587Z,33.40
2018-05-10T00:01:44.620Z,33.70
2018-05-10T00:02:44.554Z,33.90
2018-05-10T00:03:44.632Z,33.30
2018-05-10T00:04:44.513Z,33.80
2018-05-10T00:05:44.544Z,34.80
2018-05-10T00:06:44.478Z,33.20
2018-05-10T00:07:44.553Z,34.00
2018-05-10T00:08:44.426Z,34.00
2018-05-10T00:09:44.461Z,32.10
2018-05-10T00:10:44.391Z,33.10
2018-05-10T00:11:44.473Z,33.40
2018-05-10T00:12:44.352Z,32.40
2018-05-10T00:13:44.386Z,32.80
2018-05-10T00:14:44.314Z,32.30
2018-05-10T00:15:44.393Z,33.40
2018-05-10T00:16:44.274Z,32.30
2018-05-10T00:17:44.307Z,32.60
2018-05-10T00:18:44.238Z,32.60
2018-05-10T00:19:44.338Z,31.50
2018-05-10T00:20:44.192Z,31.10
2018-05-10T00:21:44.232Z,30.80
2018-05-10T00:22:44.168Z,31.10
2018-05-10T00:23:44.242Z,31.10
2018-05-10T00:24:44.125Z,30.80
2018-05-10T00:25:44.151Z,31.10
2018-05-10T00:26:44.075Z,29.90
2018-05-10T00:27:44.162Z,31.00
2018-05-10T00:28:44.035Z,30.30
2018-05-10T00:29:44.076Z,31.80
2018-05-10T00:30:43.996Z,30.80
2018-05-10T00:31:44.085Z,29.80
2018-05-10T00:32:43.956Z,29.80
2018-05-10T00:33:43.994Z,30.10
2018-05-10T00:34:43.920Z,28.90
2018-05-10T00:35:44.005Z,30.40
2018-05-10T00:36:43.879Z,30.50
2018-05-10T00:37:43.916Z,29.40
2018-05-10T00:38:43.835Z,29.30
2018-05-10T00:39:43.928Z,30.40
2018-05-10T00:40:43.796Z,29.40
2018-05-10T00:41:43.841Z,29.70
2018-05-10T00:42:43.765Z,29.40
2018-05-10T00:43:43.752Z,28.90
2018-05-10T00:44:43.715Z,28.90
2018-05-10T00:45:43.757Z,28.00
2018-05-10T00:46:43.675Z,28.60
2018-05-10T00:47:43.671Z,28.90
2018-05-10T00:48:43.635Z,27.80
2018-05-10T00:49:43.681Z,26.70
2018-05-10T00:50:43.595Z,27.10
2018-05-10T00:51:43.592Z,26.40
2018-05-10T00:52:43.553Z,27.60
2018-05-10T00:53:43.606Z,26.70
2018-05-10T00:54:43.512Z,28.80
2018-05-10T00:55:43.516Z,26.30
2018-05-10T00:56:43.482Z,25.90
2018-05-10T00:57:43.530Z,25.60
2018-05-10T00:58:43.433Z,24.30
2018-05-10T00:59:43.437Z,25.40
2018-05-10T01:00:43.397Z,22.80
2018-05-10T01:01:43.455Z,23.20
2018-05-10T01:02:43.351Z,23.10
2018-05-10T01:03:43.362Z,21.50
2018-05-10T01:04:43.351Z,20.90
2018-05-10T01:05:43.380Z,22.30
2018-05-10T01:06:43.279Z,19.90
2018-05-10T01:07:43.288Z,20.10
2018-05-10T01:08:43.235Z,18.80
2018-05-10T01:09:43.300Z,18.60
2018-05-10T01:10:43.191Z,19.20
2018-05-10T01:11:43.208Z,18.70
2018-05-10T01:12:43.148Z,17.60
2018-05-10T01:13:45.168Z,18.30
2018-05-10T01:14:43.106Z,16.70
2018-05-10T01:15:43.128Z,16.70
2018-05-10T01:16:43.071Z,16.90
2018-05-10T01:17:43.142Z,16.90
2018-05-10T01:18:43.026Z,15.80
2018-05-10T01:19:43.065Z,15.40
2018-05-10T01:20:42.984Z,15.20
2018-05-10T01:21:43.066Z,14.40
2018-05-10T01:22:42.947Z,15.20
2018-05-10T01:23:42.990Z,13.80
2018-05-10T01:24:42.901Z,14.00
2018-05-10T01:25:42.992Z,13.60
2018-05-10T01:26:42.861Z,13.70
2018-05-10T01:27:42.901Z,13.40
2018-05-10T01:28:42.815Z,15.40
2018-05-10T01:29:42.912Z,11.90
2018-05-10T01:30:42.787Z,11.10
2018-05-10T01:31:42.825Z,11.70
2018-05-10T01:32:42.736Z,13.10
2018-05-10T01:33:42.739Z,11.10
2018-05-10T01:36:22.396Z,9.90
2018-05-10T01:37:14.334Z,9.90
2018-05-10T01:39:07.260Z,10.00
2018-05-10T01:40:07.172Z,10.70
2018-05-10T01:42:00.053Z,10.40
2018-05-10T01:43:00.026Z,10.30
2018-05-10T01:44:53.985Z,12.70
2018-05-10T01:45:52.884Z,13.80
2018-05-10T01:47:45.814Z,15.70
2018-05-10T01:48:45.724Z,17.50
2018-05-10T01:50:39.689Z,21.60
2018-05-10T01:51:38.575Z,21.30
2018-05-10T01:53:32.542Z,23.60
2018-05-10T01:54:31.429Z,25.40
2018-05-10T01:56:24.362Z,24.50
2018-05-10T01:57:24.280Z,26.00
2018-05-10T01:59:18.241Z,27.90
2018-05-10T02:00:17.135Z,28.80
2018-05-10T02:02:10.067Z,30.00
2018-05-10T02:03:09.980Z,29.80
2018-05-10T02:05:02.914Z,29.60
2018-05-10T02:06:02.829Z,28.80
2018-05-10T02:07:56.791Z,30.70
2018-05-10T02:08:55.685Z,29.60
2018-05-10T02:10:48.620Z,30.40
2018-05-10T02:11:48.541Z,29.50
2018-05-10T02:13:42.495Z,31.00
2018-05-10T02:14:41.443Z,31.50
2018-05-10T02:16:34.325Z,31.90
2018-05-10T02:17:34.235Z,31.40
2018-05-10T02:19:27.179Z,34.20
2018-05-10T02:20:27.088Z,32.20
2018-05-10T02:22:20.029Z,33.50
2018-05-10T02:23:19.935Z,34.80
2018-05-10T02:25:13.898Z,34.70
2018-05-10T02:26:12.787Z,34.50
2018-05-10T02:28:05.721Z,36.30
2018-05-10T02:29:05.645Z,35.10
2018-05-10T02:30:58.581Z,34.80
2018-05-10T02:31:58.500Z,34.00
2018-05-10T02:33:51.447Z,34.90
2018-05-10T02:34:51.338Z,33.80
2018-05-10T02:36:44.301Z,35.00
2018-05-10T02:37:44.190Z,35.60
2018-05-10T02:39:37.128Z,34.20
2018-05-10T02:40:37.039Z,34.00
2018-05-10T02:42:29.979Z,33.40
2018-05-10T02:43:29.892Z,32.80
2018-05-10T02:45:22.830Z,33.40
2018-05-10T02:46:22.742Z,31.90
2018-05-10T02:48:16.708Z,31.60
2018-05-10T02:49:15.593Z,32.30
2018-05-10T02:51:08.533Z,31.80
2018-05-10T02:52:08.449Z,31.60
2018-05-10T02:54:01.387Z,30.80
2018-05-10T02:55:01.297Z,31.30
2018-05-10T02:56:54.234Z,30.50
2018-05-10T02:57:54.148Z,30.60
2018-05-10T02:59:47.081Z,30.30
2018-05-10T03:00:47.001Z,30.40
2018-05-10T03:02:39.872Z,30.60
2018-05-10T03:03:39.908Z,29.30
2018-05-10T03:05:32.783Z,29.40
2018-05-10T03:06:32.695Z,30.10
2018-05-10T03:08:25.676Z,29.80
2018-05-10T03:09:25.546Z,27.90
2018-05-10T03:11:18.489Z,29.30
2018-05-10T03:12:18.398Z,28.60
2018-05-10T03:14:11.341Z,29.70
2018-05-10T03:15:11.249Z,28.10
2018-05-10T03:17:04.197Z,28.20
2018-05-10T03:18:04.101Z,26.00
2018-05-10T03:19:57.034Z,27.70
2018-05-10T03:20:56.954Z,26.90
2018-05-10T03:22:49.890Z,26.70
2018-05-10T03:23:49.794Z,26.20
2018-05-10T03:25:42.817Z,25.30
2018-05-10T03:26:42.651Z,24.00
2018-05-10T03:28:35.590Z,24.30
2018-05-10T03:29:35.503Z,23.40
2018-05-10T03:31:28.451Z,22.80
2018-05-10T03:32:28.354Z,23.30
2018-05-10T03:34:21.292Z,22.30
2018-05-10T03:35:21.208Z,24.30
2018-05-10T03:37:14.092Z,22.60
2018-05-10T03:38:14.054Z,23.80
2018-05-10T03:40:06.995Z,20.10
2018-05-10T03:41:06.906Z,21.10
2018-05-10T03:42:59.794Z,19.90
2018-05-10T03:43:59.826Z,19.60
2018-05-10T03:45:52.697Z,19.80
2018-05-10T03:46:52.606Z,19.80
2018-05-10T03:48:45.548Z,19.00
2018-05-10T03:49:45.454Z,17.40
2018-05-10T03:51:38.397Z,18.10
2018-05-10T03:52:38.307Z,16.10
2018-05-10T03:54:31.250Z,17.40
2018-05-10T03:55:31.158Z,17.90
2018-05-10T03:57:24.091Z,20.90
2018-05-10T03:58:24.008Z,18.00
2018-05-10T04:00:16.952Z,19.90
2018-05-10T04:01:16.861Z,19.10
2018-05-10T04:03:09.746Z,19.90
2018-05-10T04:04:09.711Z,18.80
2018-05-10T04:06:02.722Z,19.10
2018-05-10T04:07:02.565Z,19.50
2018-05-10T04:08:55.498Z,19.40
2018-05-10T04:09:55.416Z,19.10
2018-05-10T04:11:48.350Z,19.20
2018-05-10T04:12:48.256Z,19.80
2018-05-10T04:14:41.201Z,22.40
2018-05-10T04:15:41.111Z,21.50
2018-05-10T04:17:35.080Z,19.30
2018-05-10T04:18:33.960Z,19.30
2018-05-10T04:20:26.900Z,19.80
2018-05-10T04:21:26.816Z,20.70
2018-05-10T04:23:19.756Z,20.00
2018-05-10T04:24:19.664Z,19.10
2018-05-10T04:26:12.602Z,21.40
2018-05-10T04:27:12.517Z,20.80
2018-05-10T04:29:05.402Z,21.20
2018-05-10T04:30:05.362Z,21.60
2018-05-10T04:31:58.307Z,18.90
2018-05-10T04:32:58.217Z,20.60
2018-05-10T04:33:58.295Z,19.70
2018-05-10T04:34:58.176Z,18.90
2018-05-10T04:35:58.204Z,19.40
2018-05-10T04:36:58.133Z,19.50
2018-05-10T04:37:58.214Z,18.80
2018-05-10T04:38:58.090Z,17.80
2018-05-10T04:39:58.126Z,17.40
2018-05-10T04:40:58.044Z,19.40
2018-05-10T04:41:58.035Z,17.00
2018-05-10T04:42:58.000Z,20.80
2018-05-10T04:43:58.049Z,17.40
2018-05-10T04:44:57.953Z,19.70
2018-05-10T04:45:57.959Z,17.00
2018-05-10T04:46:57.911Z,16.70
2018-05-10T04:47:57.969Z,17.90
2018-05-10T04:48:57.867Z,17.20
2018-05-10T04:49:57.955Z,16.60
2018-05-10T04:50:57.821Z,19.10
2018-05-10T04:51:57.893Z,16.10
2018-05-10T04:52:57.777Z,18.50
2018-05-10T04:53:57.801Z,17.60
2018-05-10T04:54:57.734Z,15.70
2018-05-10T04:55:57.816Z,17.40
2018-05-10T04:56:57.685Z,18.10
2018-05-10T04:57:57.728Z,16.30
2018-05-10T04:58:57.645Z,20.50
2018-05-10T04:59:57.761Z,16.40
2018-05-10T05:00:57.604Z,17.40
2018-05-10T05:01:57.649Z,19.90
2018-05-10T05:02:57.558Z,18.10
2018-05-10T05:03:57.563Z,18.30
2018-05-10T05:04:57.515Z,18.70
2018-05-10T05:05:58.597Z,17.60
2018-05-10T05:06:57.472Z,19.00
2018-05-10T05:07:57.491Z,19.50
2018-05-10T05:08:57.525Z,19.00
2018-05-10T05:09:57.499Z,18.60
2018-05-10T05:10:57.380Z,19.40
2018-05-10T05:11:57.465Z,18.70
2018-05-10T05:12:57.338Z,20.60
2018-05-10T05:13:57.424Z,22.60
2018-05-10T05:14:57.288Z,19.80
2018-05-10T05:15:57.348Z,22.80
2018-05-10T05:16:57.254Z,18.70
2018-05-10T05:17:57.360Z,20.30
2018-05-10T05:18:57.206Z,21.10
2018-05-10T05:19:57.269Z,20.70
2018-05-10T05:20:57.162Z,23.30
2018-05-10T05:21:57.159Z,22.80
2018-05-10T05:22:57.122Z,21.80
2018-05-10T05:23:57.169Z,24.30
2018-05-10T05:24:57.073Z,22.00
2018-05-10T05:25:57.080Z,24.40
2018-05-10T05:26:57.112Z,20.70
2018-05-10T05:27:57.093Z,23.70
2018-05-10T05:28:56.985Z,22.40
2018-05-10T05:29:57.005Z,23.50
2018-05-10T05:30:56.940Z,21.50
2018-05-10T05:31:57.019Z,21.60
2018-05-10T05:32:56.897Z,22.50
2018-05-10T05:33:56.930Z,23.10
2018-05-10T05:34:56.857Z,18.60
2018-05-10T05:35:56.940Z,19.10
2018-05-10T05:36:56.809Z,19.10
2018-05-10T05:37:56.850Z,18.50
2018-05-10T05:38:56.773Z,21.10
2018-05-10T05:39:56.761Z,21.70
2018-05-10T05:40:56.724Z,23.20
2018-05-10T05:41:56.777Z,20.90
2018-05-10T05:42:56.680Z,19.80
2018-05-10T05:43:56.684Z,20.40
2018-05-10T05:44:56.635Z,20.70
2018-05-10T05:45:56.699Z,20.00
2018-05-10T05:46:56.596Z,20.50
2018-05-10T05:47:56.605Z,21.50
2018-05-10T05:48:56.552Z,20.20
2018-05-10T05:49:56.616Z,20.90
2018-05-10T05:50:56.507Z,22.70
2018-05-10T05:51:56.521Z,22.50
2018-05-10T05:52:56.463Z,19.10
2018-05-10T05:53:56.539Z,21.50
2018-05-10T05:54:56.434Z,19.60
2018-05-10T05:55:56.443Z,22.30
2018-05-10T05:56:56.387Z,21.40
2018-05-10T05:57:56.460Z,20.10
2018-05-10T05:58:56.332Z,22.00
2018-05-10T05:59:56.361Z,24.70
2018-05-10T06:00:56.356Z,21.30
2018-05-10T06:01:56.279Z,23.10
2018-05-10T06:02:56.246Z,23.30
2018-05-10T06:03:56.287Z,20.80
2018-05-10T06:04:56.197Z,21.10
2018-05-10T06:05:56.200Z,20.80
2018-05-10T06:06:56.171Z,21.90
2018-05-10T06:07:56.213Z,23.70
2018-05-10T06:08:56.120Z,20.90
2018-05-10T06:09:56.124Z,21.40
2018-05-10T06:10:56.071Z,23.40
2018-05-10T06:11:56.140Z,21.10
2018-05-10T06:12:56.028Z,19.50
2018-05-10T06:13:56.057Z,22.60
2018-05-10T06:14:55.988Z,19.80
2018-05-10T06:15:56.129Z,21.40
2018-05-10T06:16:55.940Z,20.50
2018-05-10T06:17:55.972Z,22.90
2018-05-10T06:18:55.901Z,20.30
2018-05-10T06:19:55.986Z,20.00
2018-05-10T06:20:55.859Z,19.90
2018-05-10T06:21:55.897Z,18.80
2018-05-10T06:22:55.811Z,19.60
2018-05-10T06:23:55.803Z,17.90
2018-05-10T06:24:55.888Z,18.20
2018-05-10T06:25:55.816Z,19.40
2018-05-10T06:26:55.725Z,16.00
2018-05-10T06:27:55.726Z,18.00
2018-05-10T06:28:55.681Z,15.30
2018-05-10T06:29:55.742Z,15.40
2018-05-10T06:30:55.641Z,14.90
2018-05-10T06:31:55.648Z,18.00
2018-05-10T06:32:55.593Z,13.60
2018-05-10T06:33:55.714Z,13.00
2018-05-10T06:34:55.551Z,13.70
2018-05-10T06:35:55.573Z,12.00
2018-05-10T06:36:55.511Z,12.70
2018-05-10T06:37:55.586Z,12.50
2018-05-10T06:38:55.470Z,10.80
2018-05-10T06:39:55.496Z,12.50
2018-05-10T06:40:55.434Z,14.90
2018-05-10T06:41:57.196Z,13.40
2018-05-10T06:42:55.381Z,13.60
2018-05-10T06:43:55.526Z,14.70
2018-05-10T06:44:55.332Z,12.70
2018-05-10T06:45:55.335Z,14.10
2018-05-10T06:46:55.374Z,15.00
2018-05-10T06:47:55.270Z,15.00
2018-05-10T06:48:55.355Z,14.90
2018-05-10T06:49:55.229Z,14.80
2018-05-10T06:50:55.270Z,15.30
2018-05-10T06:51:55.184Z,15.50
2018-05-10T06:52:55.283Z,15.70
2018-05-10T06:53:55.142Z,17.60
2018-05-10T06:54:55.193Z,18.90
2018-05-10T06:55:55.098Z,16.00
2018-05-10T06:56:55.212Z,19.90
2018-05-10T06:57:55.060Z,21.20
2018-05-10T06:58:55.121Z,22.30
2018-05-10T06:59:55.016Z,22.40
2018-05-10T07:00:55.033Z,23.40
2018-05-10T07:01:55.036Z,24.00
2018-05-10T07:02:54.948Z,22.40
2018-05-10T07:03:55.050Z,22.50
2018-05-10T07:04:54.906Z,19.70
2018-05-10T07:05:54.968Z,18.20
2018-05-10T07:06:54.866Z,14.90
2018-05-10T07:07:54.979Z,16.30
2018-05-10T07:08:54.825Z,16.70
2018-05-10T07:09:55.049Z,17.70
2018-05-10T07:10:54.780Z,19.00
2018-05-10T07:11:54.904Z,18.20
2018-05-10T07:12:54.739Z,17.70
2018-05-10T07:13:54.816Z,18.50
2018-05-10T07:14:54.692Z,19.20
2018-05-10T07:15:54.732Z,19.30
2018-05-10T07:16:54.647Z,17.30
2018-05-10T07:17:54.742Z,17.70
2018-05-10T07:18:54.609Z,20.10
2018-05-10T07:19:54.655Z,20.60
2018-05-10T07:20:54.573Z,22.30
2018-05-10T07:21:54.667Z,23.70
2018-05-10T07:22:54.527Z,24.00
2018-05-10T07:23:54.581Z,22.80
2018-05-10T07:24:54.482Z,23.40
2018-05-10T07:25:54.489Z,24.80
2018-05-10T07:26:54.440Z,23.20
2018-05-10T07:27:54.506Z,26.10
2018-05-10T07:28:54.399Z,23.70
2018-05-10T07:29:54.416Z,23.00
2018-05-10T07:30:54.357Z,24.90
2018-05-10T07:31:54.430Z,24.20
2018-05-10T07:32:54.371Z,25.80
2018-05-10T07:33:54.338Z,23.70
2018-05-10T07:34:54.280Z,21.00
2018-05-10T07:35:54.356Z,19.80
2018-05-10T07:36:54.228Z,20.30
2018-05-10T07:37:54.270Z,19.50
2018-05-10T07:38:54.185Z,18.60
2018-05-10T07:39:54.230Z,17.30
2018-05-10T07:40:54.143Z,15.70
2018-05-10T07:41:54.275Z,16.40
2018-05-10T07:42:54.097Z,15.50
2018-05-10T07:43:54.214Z,13.20
2018-05-10T07:44:54.056Z,14.20
2018-05-10T07:45:54.119Z,13.30
2018-05-10T07:46:54.015Z,15.90
2018-05-10T07:47:54.077Z,16.50
2018-05-10T07:48:53.969Z,15.60
2018-05-10T07:49:54.045Z,14.80
2018-05-10T07:50:53.929Z,13.30
2018-05-10T07:51:54.002Z,13.60
2018-05-10T07:52:53.908Z,13.40
2018-05-10T07:53:53.971Z,11.10
2018-05-10T07:54:53.846Z,13.70
2018-05-10T07:55:53.821Z,9.70
2018-05-10T07:56:53.889Z,14.00
2018-05-10T07:57:53.778Z,10.10
2018-05-10T07:58:53.907Z,11.10
2018-05-10T07:59:53.735Z,8.80
2018-05-10T08:00:53.712Z,9.00
2018-05-10T08:01:53.691Z,9.40
2018-05-10T08:02:53.830Z,9.10
2018-05-10T08:03:53.650Z,10.70
2018-05-10T08:04:53.741Z,9.80
2018-05-10T08:05:53.606Z,11.90
2018-05-10T08:06:53.757Z,10.30
2018-05-10T08:07:53.559Z,10.10
2018-05-10T08:08:53.667Z,8.40
2018-05-10T08:09:53.519Z,7.40
2018-05-10T08:10:53.685Z,6.60
2018-05-10T08:11:53.477Z,6.30
2018-05-10T08:12:53.594Z,8.20
2018-05-10T08:13:53.433Z,10.10
2018-05-10T08:14:53.503Z,8.00
2018-05-10T08:15:53.392Z,7.20
2018-05-10T08:16:53.521Z,5.30
2018-05-10T08:17:53.351Z,6.50
2018-05-10T08:18:53.433Z,6.30
2018-05-10T08:19:53.303Z,6.50
2018-05-10T08:20:53.344Z,7.60
2018-05-10T08:21:53.261Z,5.70
2018-05-10T08:22:53.255Z,8.20
2018-05-10T08:23:53.221Z,8.50
2018-05-10T08:24:53.275Z,10.10
2018-05-10T08:25:53.178Z,9.10
2018-05-10T08:26:53.179Z,9.10
2018-05-10T08:27:53.135Z,9.70
2018-05-10T08:28:53.198Z,12.40
2018-05-10T08:29:53.094Z,10.00
2018-05-10T08:30:53.108Z,9.80
2018-05-10T08:31:53.050Z,10.00
2018-05-10T08:32:53.121Z,10.40
2018-05-10T08:33:53.007Z,11.90
2018-05-10T08:34:53.033Z,9.50
2018-05-10T08:35:52.967Z,7.70
2018-05-10T08:36:53.072Z,8.60
2018-05-10T08:37:52.922Z,12.30
2018-05-10T08:38:52.960Z,12.90
2018-05-10T08:39:52.872Z,10.60
2018-05-10T08:40:52.871Z,9.60
2018-05-10T08:41:52.836Z,10.80
2018-05-10T08:42:52.883Z,8.80
2018-05-10T08:43:52.799Z,11.30
2018-05-10T08:44:52.796Z,9.60
2018-05-10T08:45:52.752Z,11.30
2018-05-10T08:46:52.810Z,11.40
2018-05-10T08:47:52.704Z,11.40
2018-05-10T08:48:52.723Z,11.70
2018-05-10T08:49:52.665Z,11.80
2018-05-10T08:50:52.735Z,11.20
2018-05-10T08:51:52.647Z,11.60
2018-05-10T08:52:52.647Z,10.50
2018-05-10T08:53:52.581Z,12.00
2018-05-10T08:54:52.677Z,10.60
2018-05-10T08:55:52.532Z,10.30
2018-05-10T08:56:52.583Z,12.30
2018-05-10T08:57:52.494Z,9.90
2018-05-10T08:58:52.492Z,10.70
2018-05-10T08:59:52.473Z,11.50
2018-05-10T09:00:52.505Z,13.30
2018-05-10T09:01:52.405Z,12.70
2018-05-10T09:02:52.415Z,11.50
2018-05-10T09:03:52.364Z,11.70
2018-05-10T09:04:52.428Z,12.80
2018-05-10T09:05:52.313Z,13.50
2018-05-10T09:06:52.342Z,10.00
2018-05-10T09:07:52.273Z,10.60
2018-05-10T09:08:52.354Z,12.40
2018-05-10T09:09:52.225Z,12.90
2018-05-10T09:10:52.266Z,12.80
2018-05-10T09:11:52.187Z,14.70
2018-05-10T09:12:52.280Z,13.50
2018-05-10T09:13:52.138Z,11.60
2018-05-10T09:14:52.190Z,13.20
2018-05-10T09:15:52.110Z,14.90
2018-05-10T09:16:52.104Z,13.90
2018-05-10T09:17:52.052Z,13.70
2018-05-10T09:18:52.116Z,15.00
2018-05-10T09:19:52.010Z,12.90
2018-05-10T09:20:52.029Z,11.90
2018-05-10T09:21:51.966Z,12.40
2018-05-10T09:22:52.042Z,14.50
2018-05-10T09:23:51.918Z,12.10
2018-05-10T09:24:51.952Z,13.50
2018-05-10T09:25:51.879Z,12.60
2018-05-10T09:26:51.969Z,13.90
2018-05-10T09:27:51.838Z,13.50
2018-05-10T09:28:51.882Z,10.40
2018-05-10T09:29:51.789Z,11.30
2018-05-10T09:30:51.791Z,12.70
2018-05-10T09:31:51.840Z,12.10
2018-05-10T09:32:51.803Z,11.10
2018-05-10T09:33:51.712Z,12.60
2018-05-10T09:34:51.715Z,11.40
2018-05-10T09:35:51.661Z,12.70
2018-05-10T09:36:51.734Z,13.80
2018-05-10T09:37:51.618Z,12.60
2018-05-10T09:38:51.642Z,15.70
2018-05-10T09:39:51.575Z,11.60
2018-05-10T09:40:51.656Z,12.10
2018-05-10T09:41:51.532Z,13.60
2018-05-10T09:42:51.571Z,14.60
2018-05-10T09:43:51.492Z,15.50
2018-05-10T09:44:51.589Z,15.00
2018-05-10T09:45:51.448Z,15.70
2018-05-10T09:46:51.495Z,13.60
2018-05-10T09:47:51.402Z,15.30
2018-05-10T09:48:51.405Z,15.30
2018-05-10T09:49:51.428Z,13.90
2018-05-10T09:50:51.422Z,15.80
2018-05-10T09:51:51.316Z,13.90
2018-05-10T09:52:51.336Z,14.80
2018-05-10T09:53:51.274Z,13.70
2018-05-10T09:54:51.347Z,14.30
2018-05-10T09:55:51.240Z,13.80
2018-05-10T09:56:51.258Z,16.80
2018-05-10T09:57:51.190Z,14.20
2018-05-10T09:58:51.272Z,15.40
2018-05-10T09:59:51.162Z,15.60
2018-05-10T10:00:51.182Z,13.70
2018-05-10T10:01:51.110Z,13.60
2018-05-10T10:02:51.196Z,15.30
2018-05-10T10:03:51.064Z,16.90
2018-05-10T10:04:51.109Z,18.40
2018-05-10T10:05:51.021Z,15.70
2018-05-10T10:06:51.025Z,17.40
2018-05-10T10:07:50.981Z,18.20
2018-05-10T10:08:51.037Z,18.60
2018-05-10T10:09:50.931Z,18.50
2018-05-10T10:10:50.954Z,17.00
2018-05-10T10:11:50.897Z,18.90
2018-05-10T10:12:50.959Z,19.30
2018-05-10T10:13:50.855Z,20.20
2018-05-10T10:14:50.870Z,19.90
2018-05-10T10:15:50.809Z,22.10
2018-05-10T10:16:50.891Z,23.40
2018-05-10T10:17:50.769Z,24.60
2018-05-10T10:18:50.804Z,24.50
2018-05-10T10:19:50.721Z,26.80
2018-05-10T10:20:50.822Z,23.60
2018-05-10T10:21:50.680Z,25.30
2018-05-10T10:22:50.725Z,28.00
2018-05-10T10:23:50.640Z,29.50
2018-05-10T10:24:50.643Z,25.60
2018-05-10T10:25:50.594Z,25.50
2018-05-10T10:26:50.656Z,23.40
2018-05-10T10:27:50.549Z,24.30
2018-05-10T10:28:50.567Z,26.30
2018-05-10T10:29:50.508Z,24.80
2018-05-10T10:30:50.579Z,24.30
2018-05-10T10:31:50.461Z,25.80
2018-05-10T10:32:51.517Z,25.90
2018-05-10T10:33:50.419Z,25.70
2018-05-10T10:34:50.505Z,24.50
2018-05-10T10:35:50.389Z,25.80
2018-05-10T10:36:50.416Z,26.90
2018-05-10T10:37:50.335Z,26.20
2018-05-10T10:38:50.326Z,26.20
2018-05-10T10:39:50.287Z,23.50
2018-05-10T10:40:50.342Z,24.80
2018-05-10T10:41:50.250Z,25.60
2018-05-10T10:42:50.256Z,25.10
2018-05-10T10:43:50.209Z,26.60
2018-05-10T10:44:50.268Z,26.40
2018-05-10T10:45:50.156Z,25.50
2018-05-10T10:46:50.179Z,25.00
2018-05-10T10:47:50.111Z,25.90
2018-05-10T10:48:50.193Z,27.80
2018-05-10T10:49:50.070Z,27.20
2018-05-10T10:50:50.106Z,27.20
2018-05-10T10:51:50.028Z,26.20
2018-05-10T10:52:50.084Z,24.60
2018-05-10T10:53:50.067Z,26.90
2018-05-10T10:54:49.962Z,27.00
2018-05-10T10:55:50.038Z,30.10
2018-05-10T10:56:49.918Z,27.40
2018-05-10T10:57:49.950Z,25.80
2018-05-10T10:58:49.870Z,25.80
2018-05-10T10:59:49.962Z,27.60
2018-05-10T11:00:49.832Z,26.30
2018-05-10T11:01:49.909Z,25.30
2018-05-10T11:02:49.787Z,28.10
2018-05-10T11:03:49.790Z,23.30
2018-05-10T11:04:49.739Z,27.60
2018-05-10T11:05:49.799Z,25.50
2018-05-10T11:06:49.698Z,26.10
2018-05-10T11:07:49.711Z,27.40
2018-05-10T11:08:49.735Z,26.20
2018-05-10T11:09:49.731Z,26.20
2018-05-10T11:10:49.607Z,25.50
2018-05-10T11:11:49.637Z,26.90
2018-05-10T11:12:49.564Z,24.70
2018-05-10T11:13:49.651Z,27.70
2018-05-10T11:14:49.521Z,27.00
2018-05-10T11:15:49.564Z,26.60
2018-05-10T11:16:49.527Z,25.70
2018-05-10T11:17:51.525Z,27.00
2018-05-10T11:18:49.433Z,29.20
2018-05-10T11:19:49.491Z,30.80
2018-05-10T11:20:49.409Z,25.30
2018-05-10T11:21:49.401Z,28.80
2018-05-10T11:22:49.343Z,27.50
2018-05-10T11:23:49.421Z,26.20
2018-05-10T11:24:49.301Z,26.30
2018-05-10T11:25:49.326Z,27.80
2018-05-10T11:26:49.256Z,26.40
2018-05-10T11:27:49.344Z,24.80
2018-05-10T11:28:49.215Z,28.20
2018-05-10T11:29:49.255Z,25.10
2018-05-10T11:30:49.169Z,24.90
2018-05-10T11:31:49.166Z,28.50
2018-05-10T11:32:49.159Z,30.20
2018-05-10T11:33:49.180Z,28.30
2018-05-10T11:34:49.082Z,28.50
2018-05-10T11:35:49.091Z,25.60
2018-05-10T11:36:49.037Z,27.10
2018-05-10T11:37:49.106Z,28.60
2018-05-10T11:38:48.995Z,27.60
2018-05-10T11:39:49.018Z,26.80
2018-05-10T11:40:48.950Z,26.80
2018-05-10T11:41:49.031Z,27.20
2018-05-10T11:42:48.907Z,26.70
2018-05-10T11:43:48.944Z,26.90
2018-05-10T11:44:48.864Z,25.10
2018-05-10T11:45:48.970Z,28.20
2018-05-10T11:46:48.843Z,25.60
2018-05-10T11:47:48.883Z,29.50
2018-05-10T11:48:48.775Z,25.40
2018-05-10T11:49:48.803Z,26.60
2018-05-10T11:50:48.730Z,25.10
2018-05-10T11:51:48.823Z,27.40
2018-05-10T11:52:48.687Z,27.70
2018-05-10T11:53:48.731Z,25.70
2018-05-10T11:54:48.641Z,27.40
2018-05-10T11:55:48.638Z,27.80
2018-05-10T11:56:48.602Z,26.50
2018-05-10T11:57:48.652Z,28.10
2018-05-10T11:58:48.557Z,24.60
2018-05-10T11:59:48.563Z,26.90
2018-05-10T12:00:48.513Z,26.40
2018-05-10T12:01:48.577Z,27.10
2018-05-10T12:02:48.471Z,27.40
2018-05-10T12:03:48.493Z,26.00
2018-05-10T12:04:48.430Z,26.70
2018-05-10T12:05:48.506Z,27.60
2018-05-10T12:06:48.384Z,26.30
2018-05-10T12:07:48.424Z,29.90
2018-05-10T12:08:48.340Z,25.00
2018-05-10T12:09:48.323Z,28.50
2018-05-10T12:10:48.299Z,27.80
2018-05-10T12:11:48.466Z,26.50
2018-05-10T12:12:48.260Z,25.10
2018-05-10T12:13:48.356Z,26.80
2018-05-10T12:14:48.212Z,25.40
2018-05-10T12:15:48.189Z,27.60
2018-05-10T12:16:48.275Z,24.30
2018-05-10T12:17:48.146Z,25.40
2018-05-10T12:18:48.191Z,27.10
2018-05-10T12:19:48.101Z,26.20
2018-05-10T12:20:48.101Z,27.80
2018-05-10T12:21:48.060Z,25.80
2018-05-10T12:22:48.115Z,24.90
2018-05-10T12:23:48.020Z,25.20
2018-05-10T12:24:48.023Z,28.90
2018-05-10T12:25:47.978Z,25.50
2018-05-10T12:26:48.038Z,27.00
2018-05-10T12:27:47.932Z,25.50
2018-05-10T12:28:47.951Z,26.50
2018-05-10T12:29:47.887Z,25.40
2018-05-10T12:30:47.964Z,28.90
2018-05-10T12:31:47.846Z,26.60
2018-05-10T12:32:47.876Z,28.60
2018-05-10T12:33:47.804Z,25.40
2018-05-10T12:34:47.890Z,26.00
2018-05-10T12:35:47.760Z,27.00
2018-05-10T12:36:47.802Z,27.70
2018-05-10T12:37:47.716Z,25.10
2018-05-10T12:38:47.712Z,30.30
2018-05-10T12:39:47.673Z,24.50
2018-05-10T12:40:47.726Z,26.70
2018-05-10T12:41:47.631Z,25.10
2018-05-10T12:42:47.638Z,26.50
2018-05-10T12:43:47.608Z,25.50
2018-05-10T12:44:47.651Z,26.10
2018-05-10T12:45:47.553Z,23.20
2018-05-10T12:46:47.563Z,25.50
2018-05-10T12:47:47.507Z,27.30
2018-05-10T12:48:47.654Z,24.60
2018-05-10T12:49:47.466Z,25.00
2018-05-10T12:50:47.489Z,26.60
2018-05-10T12:51:47.425Z,26.10
2018-05-10T12:52:47.504Z,24.40
2018-05-10T12:53:47.383Z,22.70
2018-05-10T12:54:47.413Z,23.30
2018-05-10T12:55:47.356Z,25.60
2018-05-10T12:56:47.428Z,21.90
2018-05-10T12:57:47.298Z,25.70
2018-05-10T12:58:47.342Z,24.90
2018-05-10T12:59:47.254Z,24.10
2018-05-10T13:00:47.279Z,25.70
2018-05-10T13:01:47.211Z,22.90
2018-05-10T13:02:47.339Z,25.20
2018-05-10T13:03:47.171Z,21.20
2018-05-10T13:04:47.178Z,23.10
2018-05-10T13:05:47.128Z,25.90
2018-05-10T13:06:47.321Z,23.50
2018-05-10T13:07:47.092Z,23.70
2018-05-10T13:08:47.101Z,21.60
2018-05-10T13:09:47.045Z,21.80
2018-05-10T13:10:48.040Z,21.40
2018-05-10T13:11:47.003Z,20.80
2018-05-10T13:12:47.029Z,21.50
2018-05-10T13:13:46.960Z,21.90
2018-05-10T13:14:47.041Z,21.30
2018-05-10T13:15:46.920Z,21.80
2018-05-10T13:16:46.909Z,20.70
2018-05-10T13:17:46.889Z,21.20
2018-05-10T13:18:46.859Z,20.20
2018-05-10T13:19:46.836Z,25.20
2018-05-10T13:20:46.881Z,27.50
2018-05-10T13:21:46.858Z,21.90
2018-05-10T13:22:46.846Z,20.10
2018-05-10T13:23:46.754Z,21.80
2018-05-10T13:24:46.757Z,22.70
2018-05-10T13:25:46.714Z,23.00
2018-05-10T13:26:46.769Z,18.50
2018-05-10T13:27:46.669Z,22.00
2018-05-10T13:28:46.743Z,19.50
2018-05-10T13:29:46.630Z,20.70
2018-05-10T13:30:46.694Z,20.60
2018-05-10T13:31:46.584Z,21.30
2018-05-10T13:32:46.607Z,20.30
2018-05-10T13:33:46.543Z,19.60
2018-05-10T13:34:46.620Z,16.30
2018-05-10T13:35:46.499Z,17.60
2018-05-10T13:36:46.530Z,17.10
2018-05-10T13:37:46.479Z,15.50
2018-05-10T13:38:46.599Z,15.50
2018-05-10T13:39:46.414Z,17.50
2018-05-10T13:40:46.512Z,16.50
2018-05-10T13:41:46.384Z,15.80
2018-05-10T13:42:46.526Z,14.60
2018-05-10T13:43:46.341Z,15.30
2018-05-10T13:44:46.439Z,16.40
2018-05-10T13:45:46.297Z,14.90
2018-05-10T13:46:46.448Z,13.50
2018-05-10T13:47:46.256Z,14.20
2018-05-10T13:48:46.361Z,17.00